sensor_id;sensor_type;location;lat;lon;timestamp;pressure;altitude;pressure_sealevel;temperature;humidity
67931;BME280;63902;52.000;5.954;2024-01-06T00:00:42;99914.44;;;5.16;100.00
67931;BME280;63902;52.000;5.954;2024-01-06T00:01:42;99910.06;;;5.15;100.00
67931;BME280;63902;52.000;5.954;2024-01-06T00:02:43;99909.28;;;5.13;100.00
67931;BME280;63902;52.000;5.954;2024-01-06T00:03:43;99903.31;;;5.08;100.00
67931;BME280;63902;52.000;5.954;2024-01-06T00:04:44;99910.13;;;5.13;100.00
67931;BME280;63902;52.000;5.954;2024-01-06T00:05:44;99914.47;;;5.14;100.00
67931;BME280;63902;52.000;5.954;2024-01-06T00:06:44;99918.81;;;5.15;100.00
67931;BME280;63902;52.000;5.954;2024-01-06T00:07:45;99921.50;;;5.14;100.00
67931;BME280;63902;52.000;5.954;2024-01-06T00:08:46;99923.25;;;5.13;100.00
67931;BME280;63902;52.000;5.954;2024-01-06T00:09:47;99919.00;;;5.09;100.00
67931;BME280;63902;52.000;5.954;2024-01-06T00:10:47;99929.38;;;5.14;100.00
67931;BME280;63902;52.000;5.954;2024-01-06T00:11:49;99926.00;;;5.10;100.00
67931;BME280;63902;52.000;5.954;2024-01-06T00:12:50;99916.66;;;5.02;100.00
67931;BME280;63902;52.000;5.954;2024-01-06T00:13:51;99931.38;;;5.07;100.00
67931;BME280;63902;52.000;5.954;2024-01-06T00:14:52;99936.63;;;5.07;100.00
67931;BME280;63902;52.000;5.954;2024-01-06T00:15:52;99936.56;;;5.09;100.00
67931;BME280;63902;52.000;5.954;2024-01-06T00:16:53;99932.16;;;5.09;100.00
67931;BME280;63902;52.000;5.954;2024-01-06T00:17:54;99934.78;;;5.09;100.00
67931;BME280;63902;52.000;5.954;2024-01-06T00:18:54;99934.00;;;5.07;100.00
67931;BME280;63902;52.000;5.954;2024-01-06T00:19:55;99936.63;;;5.07;100.00
67931;BME280;63902;52.000;5.954;2024-01-06T00:20:55;99943.69;;;5.05;100.00
67931;BME280;63902;52.000;5.954;2024-01-06T00:21:55;99944.63;;;5.03;100.00
67931;BME280;63902;52.000;5.954;2024-01-06T00:22:56;99936.91;;;4.98;100.00
67931;BME280;63902;52.000;5.954;2024-01-06T00:23:56;99938.63;;;4.99;100.00
67931;BME280;63902;52.000;5.954;2024-01-06T00:24:57;99935.19;;;4.97;100.00
67931;BME280;63902;52.000;5.954;2024-01-06T00:25:57;99944.03;;;4.94;100.00
67931;BME280;63902;52.000;5.954;2024-01-06T00:26:58;99937.84;;;4.96;100.00
67931;BME280;63902;52.000;5.954;2024-01-06T00:27:58;99939.59;;;4.97;100.00
67931;BME280;63902;52.000;5.954;2024-01-06T00:29:00;99937.84;;;4.96;100.00
67931;BME280;63902;52.000;5.954;2024-01-06T00:30:01;99944.09;;;4.93;100.00
67931;BME280;63902;52.000;5.954;2024-01-06T00:31:01;99944.94;;;4.93;100.00
67931;BME280;63902;52.000;5.954;2024-01-06T00:32:02;99946.72;;;4.93;100.00
67931;BME280;63902;52.000;5.954;2024-01-06T00:33:03;99943.28;;;4.91;100.00
67931;BME280;63902;52.000;5.954;2024-01-06T00:34:04;99945.94;;;4.89;100.00
67931;BME280;63902;52.000;5.954;2024-01-06T00:35:05;99946.84;;;4.88;100.00
67931;BME280;63902;52.000;5.954;2024-01-06T00:36:06;99946.97;;;4.85;100.00
67931;BME280;63902;52.000;5.954;2024-01-06T00:37:07;99941.72;;;4.84;100.00
67931;BME280;63902;52.000;5.954;2024-01-06T00:38:07;99950.56;;;4.81;100.00
67931;BME280;63902;52.000;5.954;2024-01-06T00:39:08;99948.88;;;4.80;100.00
67931;BME280;63902;52.000;5.954;2024-01-06T00:40:09;99947.25;;;4.76;100.00
67931;BME280;63902;52.000;5.954;2024-01-06T00:41:10;99955.06;;;4.78;100.00
67931;BME280;63902;52.000;5.954;2024-01-06T00:42:10;99957.75;;;4.76;100.00
67931;BME280;63902;52.000;5.954;2024-01-06T00:43:11;99963.06;;;4.75;100.00
67931;BME280;63902;52.000;5.954;2024-01-06T00:44:13;99959.59;;;4.72;100.00
67931;BME280;63902;52.000;5.954;2024-01-06T00:45:13;99960.56;;;4.70;100.00
67931;BME280;63902;52.000;5.954;2024-01-06T00:46:14;99958.88;;;4.67;100.00
67931;BME280;63902;52.000;5.954;2024-01-06T00:47:14;99946.94;;;4.57;100.00
67931;BME280;63902;52.000;5.954;2024-01-06T00:48:15;99962.41;;;4.66;100.00
67931;BME280;63902;52.000;5.954;2024-01-06T00:49:15;99962.41;;;4.66;100.00
67931;BME280;63902;52.000;5.954;2024-01-06T00:50:17;99967.69;;;4.66;100.00
67931;BME280;63902;52.000;5.954;2024-01-06T00:51:17;99960.88;;;4.59;100.00
67931;BME280;63902;52.000;5.954;2024-01-06T00:52:18;99960.81;;;4.62;100.00
67931;BME280;63902;52.000;5.954;2024-01-06T00:53:18;99958.19;;;4.62;100.00
67931;BME280;63902;52.000;5.954;2024-01-06T00:54:19;99963.47;;;4.61;100.00
67931;BME280;63902;52.000;5.954;2024-01-06T00:55:19;99960.88;;;4.59;100.00
67931;BME280;63902;52.000;5.954;2024-01-06T00:56:20;99964.41;;;4.58;100.00
67931;BME280;63902;52.000;5.954;2024-01-06T00:57:20;99955.72;;;4.56;100.00
67931;BME280;63902;52.000;5.954;2024-01-06T00:58:21;99965.38;;;4.56;100.00
67931;BME280;63902;52.000;5.954;2024-01-06T00:59:23;99956.72;;;4.52;100.00
67931;BME280;63902;52.000;5.954;2024-01-06T01:00:23;99944.66;;;4.46;100.00
67931;BME280;63902;52.000;5.954;2024-01-06T01:01:24;99958.31;;;4.58;100.00
67931;BME280;63902;52.000;5.954;2024-01-06T01:02:24;99962.63;;;4.60;100.00
67931;BME280;63902;52.000;5.954;2024-01-06T01:03:24;99968.72;;;4.61;100.00
67931;BME280;63902;52.000;5.954;2024-01-06T01:04:25;99962.63;;;4.60;100.00
67931;BME280;63902;52.000;5.954;2024-01-06T01:05:25;99960.94;;;4.58;100.00
67931;BME280;63902;52.000;5.954;2024-01-06T01:06:26;99969.56;;;4.61;100.00
67931;BME280;63902;52.000;5.954;2024-01-06T01:07:26;99970.44;;;4.62;100.00
67931;BME280;63902;52.000;5.954;2024-01-06T01:08:27;99973.94;;;4.62;100.00
67931;BME280;63902;52.000;5.954;2024-01-06T01:09:27;99966.94;;;4.61;100.00
67931;BME280;63902;52.000;5.954;2024-01-06T01:10:28;99969.56;;;4.61;100.00
67931;BME280;63902;52.000;5.954;2024-01-06T01:11:28;99971.38;;;4.59;100.00
67931;BME280;63902;52.000;5.954;2024-01-06T01:12:29;99959.44;;;4.49;100.00
67931;BME280;63902;52.000;5.954;2024-01-06T01:13:29;99972.28;;;4.58;100.00
67931;BME280;63902;52.000;5.954;2024-01-06T01:14:31;99978.38;;;4.60;100.00
67931;BME280;63902;52.000;5.954;2024-01-06T01:15:31;99977.44;;;4.61;100.00
67931;BME280;63902;52.000;5.954;2024-01-06T01:16:32;99973.06;;;4.62;100.00
67931;BME280;63902;52.000;5.954;2024-01-06T01:17:32;99980.09;;;4.61;100.00
67931;BME280;63902;52.000;5.954;2024-01-06T01:18:33;99981.84;;;4.61;100.00
67931;BME280;63902;52.000;5.954;2024-01-06T01:19:33;99965.47;;;4.53;100.00
67931;BME280;63902;52.000;5.954;2024-01-06T01:20:34;99974.84;;;4.61;100.00
67931;BME280;63902;52.000;5.954;2024-01-06T01:21:34;99987.13;;;4.59;100.00
67931;BME280;63902;52.000;5.954;2024-01-06T01:22:35;99980.16;;;4.60;100.00
67931;BME280;63902;52.000;5.954;2024-01-06T01:23:35;99983.66;;;4.59;100.00
67931;BME280;63902;52.000;5.954;2024-01-06T01:24:36;99976.88;;;4.52;100.00
67931;BME280;63902;52.000;5.954;2024-01-06T01:25:36;99984.56;;;4.58;100.00
67931;BME280;63902;52.000;5.954;2024-01-06T01:26:37;99977.84;;;4.49;100.00
67931;BME280;63902;52.000;5.954;2024-01-06T01:27:37;99977.84;;;4.49;100.00
67931;BME280;63902;52.000;5.954;2024-01-06T01:28:38;99988.16;;;4.55;100.00
67931;BME280;63902;52.000;5.954;2024-01-06T01:29:39;99991.63;;;4.56;100.00
67931;BME280;63902;52.000;5.954;2024-01-06T01:30:40;100000.44;;;4.55;100.00
67931;BME280;63902;52.000;5.954;2024-01-06T01:31:40;99987.31;;;4.53;100.00
67931;BME280;63902;52.000;5.954;2024-01-06T01:32:41;99996.97;;;4.53;100.00
67931;BME280;63902;52.000;5.954;2024-01-06T01:33:41;100004.00;;;4.52;100.00
67931;BME280;63902;52.000;5.954;2024-01-06T01:34:42;100004.91;;;4.51;100.00
67931;BME280;63902;52.000;5.954;2024-01-06T01:35:42;100004.03;;;4.51;100.00
67931;BME280;63902;52.000;5.954;2024-01-06T01:36:43;99992.09;;;4.40;100.00
67931;BME280;63902;52.000;5.954;2024-01-06T01:37:43;99993.88;;;4.40;100.00
67931;BME280;63902;52.000;5.954;2024-01-06T01:38:44;100008.44;;;4.50;100.00
67931;BME280;63902;52.000;5.954;2024-01-06T01:39:44;100017.22;;;4.49;100.00
67931;BME280;63902;52.000;5.954;2024-01-06T01:40:45;100014.63;;;4.47;100.00
67931;BME280;63902;52.000;5.954;2024-01-06T01:41:45;100002.50;;;4.43;100.00
67931;BME280;63902;52.000;5.954;2024-01-06T01:42:45;100005.25;;;4.39;100.00
67931;BME280;63902;52.000;5.954;2024-01-06T01:43:46;100009.38;;;4.47;100.00
67931;BME280;63902;52.000;5.954;2024-01-06T01:44:48;100012.84;;;4.48;100.00
67931;BME280;63902;52.000;5.954;2024-01-06T01:45:54;100008.63;;;4.44;100.00
67931;BME280;63902;52.000;5.954;2024-01-06T01:46:54;100006.81;;;4.46;100.00
67931;BME280;63902;52.000;5.954;2024-01-06T01:47:55;100019.84;;;4.49;100.00
67931;BME280;63902;52.000;5.954;2024-01-06T01:48:57;99998.19;;;4.41;100.00
67931;BME280;63902;52.000;5.954;2024-01-06T01:49:58;100017.22;;;4.49;100.00
67931;BME280;63902;52.000;5.954;2024-01-06T01:50:58;100017.16;;;4.51;100.00
67931;BME280;63902;52.000;5.954;2024-01-06T01:51:59;100027.66;;;4.51;100.00
67931;BME280;63902;52.000;5.954;2024-01-06T01:53:00;100020.81;;;4.45;100.00
67931;BME280;63902;52.000;5.954;2024-01-06T01:54:01;100022.50;;;4.47;100.00
67931;BME280;63902;52.000;5.954;2024-01-06T01:55:02;100024.28;;;4.47;100.00
67931;BME280;63902;52.000;5.954;2024-01-06T01:56:03;100019.88;;;4.47;100.00
67931;BME280;63902;52.000;5.954;2024-01-06T01:57:04;100012.25;;;4.40;100.00
67931;BME280;63902;52.000;5.954;2024-01-06T01:58:05;100034.69;;;4.50;100.00
67931;BME280;63902;52.000;5.954;2024-01-06T01:59:09;100030.28;;;4.51;100.00
67931;BME280;63902;52.000;5.954;2024-01-06T02:00:13;100035.63;;;4.47;100.00
67931;BME280;63902;52.000;5.954;2024-01-06T02:01:15;100038.31;;;4.46;100.00
67931;BME280;63902;52.000;5.954;2024-01-06T02:02:16;100031.31;;;4.45;100.00
67931;BME280;63902;52.000;5.954;2024-01-06T02:03:17;100040.94;;;4.46;100.00
67931;BME280;63902;52.000;5.954;2024-01-06T02:04:17;100042.75;;;4.44;100.00
67931;BME280;63902;52.000;5.954;2024-01-06T02:05:18;100048.91;;;4.43;100.00
67931;BME280;63902;52.000;5.954;2024-01-06T02:06:18;100052.41;;;4.43;100.00
67931;BME280;63902;52.000;5.954;2024-01-06T02:07:18;100045.47;;;4.41;100.00
67931;BME280;63902;52.000;5.954;2024-01-06T02:08:19;100050.72;;;4.41;100.00
67931;BME280;63902;52.000;5.954;2024-01-06T02:09:19;100022.41;;;4.21;100.00
67931;BME280;63902;52.000;5.954;2024-01-06T02:10:20;100053.34;;;4.41;100.00
67931;BME280;63902;52.000;5.954;2024-01-06T02:11:21;100054.16;;;4.43;100.00
67931;BME280;63902;52.000;5.954;2024-01-06T02:12:21;100053.44;;;4.38;100.00
67931;BME280;63902;52.000;5.954;2024-01-06T02:13:22;100062.94;;;4.42;100.00
67931;BME280;63902;52.000;5.954;2024-01-06T02:14:22;100044.00;;;4.31;100.00
67931;BME280;63902;52.000;5.954;2024-01-06T02:15:24;100065.56;;;4.42;100.00
67931;BME280;63902;52.000;5.954;2024-01-06T02:16:25;100068.16;;;4.43;100.00
67931;BME280;63902;52.000;5.954;2024-01-06T02:17:25;100065.56;;;4.42;100.00
67931;BME280;63902;52.000;5.954;2024-01-06T02:18:26;100069.00;;;4.44;100.00
67931;BME280;63902;52.000;5.954;2024-01-06T02:19:26;100060.38;;;4.39;100.00
67931;BME280;63902;52.000;5.954;2024-01-06T02:20:28;100054.47;;;4.32;100.00
67931;BME280;63902;52.000;5.954;2024-01-06T02:21:31;100054.56;;;4.28;100.00
67931;BME280;63902;52.000;5.954;2024-01-06T02:22:34;100074.59;;;4.32;100.00
67931;BME280;63902;52.000;5.954;2024-01-06T02:23:36;100082.47;;;4.32;100.00
67931;BME280;63902;52.000;5.954;2024-01-06T02:24:37;100074.59;;;4.32;100.00
67931;BME280;63902;52.000;5.954;2024-01-06T02:25:37;100072.84;;;4.32;100.00
67931;BME280;63902;52.000;5.954;2024-01-06T02:26:37;100081.56;;;4.33;100.00
67931;BME280;63902;52.000;5.954;2024-01-06T02:27:38;100079.03;;;4.30;100.00
67931;BME280;63902;52.000;5.954;2024-01-06T02:28:38;100073.78;;;4.30;100.00
67931;BME280;63902;52.000;5.954;2024-01-06T02:29:39;100082.56;;;4.29;100.00
67931;BME280;63902;52.000;5.954;2024-01-06T02:30:40;100081.66;;;4.30;100.00
67931;BME280;63902;52.000;5.954;2024-01-06T02:31:40;100073.94;;;4.23;100.00
67931;BME280;63902;52.000;5.954;2024-01-06T02:32:41;100084.31;;;4.28;100.00
67931;BME280;63902;52.000;5.954;2024-01-06T02:33:41;100078.28;;;4.24;100.00
67931;BME280;63902;52.000;5.954;2024-01-06T02:34:41;100083.53;;;4.24;100.00
67931;BME280;63902;52.000;5.954;2024-01-06T02:35:42;100077.47;;;4.22;100.00
67931;BME280;63902;52.000;5.954;2024-01-06T02:36:42;100079.28;;;4.20;100.00
67931;BME280;63902;52.000;5.954;2024-01-06T02:37:44;100085.31;;;4.24;100.00
67931;BME280;63902;52.000;5.954;2024-01-06T02:38:45;100085.31;;;4.24;100.00
67931;BME280;63902;52.000;5.954;2024-01-06T02:39:46;100092.25;;;4.26;100.00
67931;BME280;63902;52.000;5.954;2024-01-06T02:40:46;100093.09;;;4.27;100.00
67931;BME280;63902;52.000;5.954;2024-01-06T02:41:47;100094.88;;;4.25;100.00
67931;BME280;63902;52.000;5.954;2024-01-06T02:42:47;100086.28;;;4.20;100.00
67931;BME280;63902;52.000;5.954;2024-01-06T02:43:48;100095.91;;;4.19;100.00
67931;BME280;63902;52.000;5.954;2024-01-06T02:44:48;100095.13;;;4.17;100.00
67931;BME280;63902;52.000;5.954;2024-01-06T02:45:48;100102.06;;;4.18;100.00
67931;BME280;63902;52.000;5.954;2024-01-06T02:46:49;100101.16;;;4.19;100.00
67931;BME280;63902;52.000;5.954;2024-01-06T02:47:49;100103.00;;;4.17;100.00
67931;BME280;63902;52.000;5.954;2024-01-06T02:48:50;100099.47;;;4.17;100.00
67931;BME280;63902;52.000;5.954;2024-01-06T02:49:51;100091.09;;;4.04;100.00
67931;BME280;63902;52.000;5.954;2024-01-06T02:50:51;100105.66;;;4.16;100.00
67931;BME280;63902;52.000;5.954;2024-01-06T02:51:51;100104.78;;;4.15;100.00
67931;BME280;63902;52.000;5.954;2024-01-06T02:52:53;100114.44;;;4.15;100.00
67931;BME280;63902;52.000;5.954;2024-01-06T02:53:54;100116.16;;;4.14;100.00
67931;BME280;63902;52.000;5.954;2024-01-06T02:54:54;100109.28;;;4.10;100.00
67931;BME280;63902;52.000;5.954;2024-01-06T02:55:55;100115.41;;;4.11;100.00
67931;BME280;63902;52.000;5.954;2024-01-06T02:56:55;100114.56;;;4.09;100.00
67931;BME280;63902;52.000;5.954;2024-01-06T02:57:56;100107.56;;;4.09;100.00
67931;BME280;63902;52.000;5.954;2024-01-06T02:58:56;100107.56;;;4.09;100.00
67931;BME280;63902;52.000;5.954;2024-01-06T02:59:57;100109.38;;;4.07;100.00
67931;BME280;63902;52.000;5.954;2024-01-06T03:00:57;100117.28;;;4.06;100.00
67931;BME280;63902;52.000;5.954;2024-01-06T03:01:58;100114.69;;;4.04;100.00
67931;BME280;63902;52.000;5.954;2024-01-06T03:02:58;100113.00;;;4.01;100.00
67931;BME280;63902;52.000;5.954;2024-01-06T03:03:59;100115.66;;;4.00;100.00
67931;BME280;63902;52.000;5.954;2024-01-06T03:04:59;100118.34;;;3.98;100.00
67931;BME280;63902;52.000;5.954;2024-01-06T03:06:00;100116.56;;;3.99;100.00
67931;BME280;63902;52.000;5.954;2024-01-06T03:07:00;100116.56;;;3.99;100.00
67931;BME280;63902;52.000;5.954;2024-01-06T03:08:02;100120.13;;;3.98;100.00
67931;BME280;63902;52.000;5.954;2024-01-06T03:09:03;100120.13;;;3.98;100.00
67931;BME280;63902;52.000;5.954;2024-01-06T03:10:04;100127.06;;;3.99;100.00
67931;BME280;63902;52.000;5.954;2024-01-06T03:11:04;100127.97;;;3.98;100.00
67931;BME280;63902;52.000;5.954;2024-01-06T03:12:05;100127.94;;;3.99;100.00
67931;BME280;63902;52.000;5.954;2024-01-06T03:13:06;100133.19;;;3.99;100.00
67931;BME280;63902;52.000;5.954;2024-01-06T03:14:07;100122.00;;;3.91;100.00
67931;BME280;63902;52.000;5.954;2024-01-06T03:15:08;100124.69;;;3.90;100.00
67931;BME280;63902;52.000;5.954;2024-01-06T03:16:11;100132.44;;;3.94;100.00
67931;BME280;63902;52.000;5.954;2024-01-06T03:17:11;100135.91;;;3.95;100.00
67931;BME280;63902;52.000;5.954;2024-01-06T03:18:12;100132.41;;;3.96;100.00
67931;BME280;63902;52.000;5.954;2024-01-06T03:19:15;100140.28;;;3.96;100.00
67931;BME280;63902;52.000;5.954;2024-01-06T03:20:16;100124.78;;;3.85;100.00
67931;BME280;63902;52.000;5.954;2024-01-06T03:21:17;100142.97;;;3.93;100.00
67931;BME280;63902;52.000;5.954;2024-01-06T03:22:17;100137.75;;;3.91;100.00
67931;BME280;63902;52.000;5.954;2024-01-06T03:23:19;100149.16;;;3.90;100.00
67931;BME280;63902;52.000;5.954;2024-01-06T03:24:23;100143.06;;;3.90;100.00
67931;BME280;63902;52.000;5.954;2024-01-06T03:25:24;100145.63;;;3.91;100.00
67931;BME280;63902;52.000;5.954;2024-01-06T03:26:24;100143.84;;;3.92;100.00
67931;BME280;63902;52.000;5.954;2024-01-06T03:27:25;100151.69;;;3.93;100.00
67931;BME280;63902;52.000;5.954;2024-01-06T03:28:25;100143.75;;;3.96;100.00
67931;BME280;63902;52.000;5.954;2024-01-06T03:29:26;100149.84;;;3.97;100.00
67931;BME280;63902;52.000;5.954;2024-01-06T03:30:26;100154.25;;;3.96;100.00
67931;BME280;63902;52.000;5.954;2024-01-06T03:31:27;100150.72;;;3.97;100.00
67931;BME280;63902;52.000;5.954;2024-01-06T03:32:27;100149.00;;;3.96;100.00
67931;BME280;63902;52.000;5.954;2024-01-06T03:33:28;100155.16;;;3.95;100.00
67931;BME280;63902;52.000;5.954;2024-01-06T03:34:28;100153.47;;;3.93;100.00
67931;BME280;63902;52.000;5.954;2024-01-06T03:35:29;100156.97;;;3.92;100.00
67931;BME280;63902;52.000;5.954;2024-01-06T03:36:29;100149.16;;;3.90;100.00
67931;BME280;63902;52.000;5.954;2024-01-06T03:37:29;100156.16;;;3.90;100.00
67931;BME280;63902;52.000;5.954;2024-01-06T03:38:31;100150.94;;;3.88;100.00
67931;BME280;63902;52.000;5.954;2024-01-06T03:39:32;100157.97;;;3.88;100.00
67931;BME280;63902;52.000;5.954;2024-01-06T03:40:32;100159.66;;;3.89;100.00
67931;BME280;63902;52.000;5.954;2024-01-06T03:41:33;100160.59;;;3.88;100.00
67931;BME280;63902;52.000;5.954;2024-01-06T03:42:33;100159.75;;;3.86;100.00
67931;BME280;63902;52.000;5.954;2024-01-06T03:43:34;100158.91;;;3.84;100.00
67931;BME280;63902;52.000;5.954;2024-01-06T03:44:34;100161.53;;;3.84;100.00
67931;BME280;63902;52.000;5.954;2024-01-06T03:45:35;100162.44;;;3.83;100.00
67931;BME280;63902;52.000;5.954;2024-01-06T03:46:35;100159.88;;;3.81;100.00
67931;BME280;63902;52.000;5.954;2024-01-06T03:47:36;100164.16;;;3.84;100.00
67931;BME280;63902;52.000;5.954;2024-01-06T03:48:36;100170.28;;;3.84;100.00
67931;BME280;63902;52.000;5.954;2024-01-06T03:49:37;100165.91;;;3.85;100.00
67931;BME280;63902;52.000;5.954;2024-01-06T03:50:37;100165.06;;;3.83;100.00
67931;BME280;63902;52.000;5.954;2024-01-06T03:51:38;100171.22;;;3.81;100.00
67931;BME280;63902;52.000;5.954;2024-01-06T03:52:38;100169.47;;;3.80;100.00
67931;BME280;63902;52.000;5.954;2024-01-06T03:53:40;100173.00;;;3.79;100.00
67931;BME280;63902;52.000;5.954;2024-01-06T03:54:40;100139.34;;;3.61;100.00
67931;BME280;63902;52.000;5.954;2024-01-06T03:55:41;100135.94;;;3.57;100.00
67931;BME280;63902;52.000;5.954;2024-01-06T03:56:41;100171.38;;;3.75;100.00
67931;BME280;63902;52.000;5.954;2024-01-06T03:57:42;100173.00;;;3.79;100.00
67931;BME280;63902;52.000;5.954;2024-01-06T03:58:42;100172.09;;;3.80;100.00
67931;BME280;63902;52.000;5.954;2024-01-06T03:59:43;100174.72;;;3.80;100.00
67931;BME280;63902;52.000;5.954;2024-01-06T04:00:43;100172.19;;;3.77;100.00
67931;BME280;63902;52.000;5.954;2024-01-06T04:01:44;100177.34;;;3.80;100.00
67931;BME280;63902;52.000;5.954;2024-01-06T04:02:44;100182.66;;;3.79;100.00
67931;BME280;63902;52.000;5.954;2024-01-06T04:03:45;100177.44;;;3.77;100.00
67931;BME280;63902;52.000;5.954;2024-01-06T04:04:45;100186.22;;;3.76;100.00
67931;BME280;63902;52.000;5.954;2024-01-06T04:05:45;100183.59;;;3.76;100.00
67931;BME280;63902;52.000;5.954;2024-01-06T04:06:46;100181.91;;;3.72;100.00
67931;BME280;63902;52.000;5.954;2024-01-06T04:07:46;100184.50;;;3.74;100.00
67931;BME280;63902;52.000;5.954;2024-01-06T04:08:48;100183.66;;;3.73;100.00
67931;BME280;63902;52.000;5.954;2024-01-06T04:09:49;100188.91;;;3.73;100.00
67931;BME280;63902;52.000;5.954;2024-01-06T04:10:49;100183.59;;;3.75;100.00
67931;BME280;63902;52.000;5.954;2024-01-06T04:11:49;100190.63;;;3.74;100.00
67931;BME280;63902;52.000;5.954;2024-01-06T04:12:50;100190.66;;;3.73;100.00
67931;BME280;63902;52.000;5.954;2024-01-06T04:13:50;100186.34;;;3.70;100.00
67931;BME280;63902;52.000;5.954;2024-01-06T04:14:51;100193.38;;;3.70;100.00
67931;BME280;63902;52.000;5.954;2024-01-06T04:15:51;100196.84;;;3.70;100.00
67931;BME280;63902;52.000;5.954;2024-01-06T04:16:52;100192.47;;;3.69;100.00
67931;BME280;63902;52.000;5.954;2024-01-06T04:17:54;100201.25;;;3.70;100.00
67931;BME280;63902;52.000;5.954;2024-01-06T04:18:54;100194.22;;;3.70;100.00
67931;BME280;63902;52.000;5.954;2024-01-06T04:19:55;100192.47;;;3.69;100.00
67931;BME280;63902;52.000;5.954;2024-01-06T04:20:55;100177.00;;;3.58;100.00
67931;BME280;63902;52.000;5.954;2024-01-06T04:21:56;100200.41;;;3.68;100.00
67931;BME280;63902;52.000;5.954;2024-01-06T04:22:56;100189.06;;;3.67;100.00
67931;BME280;63902;52.000;5.954;2024-01-06T04:23:58;100199.53;;;3.67;100.00
67931;BME280;63902;52.000;5.954;2024-01-06T04:24:58;100201.25;;;3.68;100.00
67931;BME280;63902;52.000;5.954;2024-01-06T04:25:59;100196.03;;;3.67;100.00
67931;BME280;63902;52.000;5.954;2024-01-06T04:26:59;100193.47;;;3.65;100.00
67931;BME280;63902;52.000;5.954;2024-01-06T04:28:00;100197.81;;;3.66;100.00
67931;BME280;63902;52.000;5.954;2024-01-06T04:29:00;100200.41;;;3.68;100.00
67931;BME280;63902;52.000;5.954;2024-01-06T04:30:01;100197.81;;;3.66;100.00
67931;BME280;63902;52.000;5.954;2024-01-06T04:31:01;100195.25;;;3.63;100.00
67931;BME280;63902;52.000;5.954;2024-01-06T04:32:02;100190.16;;;3.55;100.00
67931;BME280;63902;52.000;5.954;2024-01-06T04:33:03;100202.34;;;3.59;100.00
67931;BME280;63902;52.000;5.954;2024-01-06T04:34:03;100198.94;;;3.56;100.00
67931;BME280;63902;52.000;5.954;2024-01-06T04:35:05;100196.31;;;3.56;100.00
67931;BME280;63902;52.000;5.954;2024-01-06T04:36:06;100198.94;;;3.54;100.00
67931;BME280;63902;52.000;5.954;2024-01-06T04:37:07;100199.88;;;3.52;100.00
67931;BME280;63902;52.000;5.954;2024-01-06T04:38:07;100202.53;;;3.50;100.00
67931;BME280;63902;52.000;5.954;2024-01-06T04:39:09;100206.03;;;3.51;100.00
67931;BME280;63902;52.000;5.954;2024-01-06T04:40:11;100188.75;;;3.41;100.00
67931;BME280;63902;52.000;5.954;2024-01-06T04:41:11;100200.72;;;3.52;100.00
67931;BME280;63902;52.000;5.954;2024-01-06T04:42:12;100203.34;;;3.54;100.00
67931;BME280;63902;52.000;5.954;2024-01-06T04:43:12;100201.56;;;3.54;100.00
67931;BME280;63902;52.000;5.954;2024-01-06T04:44:13;100204.25;;;3.53;100.00
67931;BME280;63902;52.000;5.954;2024-01-06T04:45:13;100204.25;;;3.53;100.00
67931;BME280;63902;52.000;5.954;2024-01-06T04:46:14;100187.81;;;3.43;100.00
67931;BME280;63902;52.000;5.954;2024-01-06T04:47:14;100205.13;;;3.52;100.00
67931;BME280;63902;52.000;5.954;2024-01-06T04:48:14;100204.28;;;3.50;100.00
67931;BME280;63902;52.000;5.954;2024-01-06T04:49:15;100205.13;;;3.52;100.00
67931;BME280;63902;52.000;5.954;2024-01-06T04:50:16;100206.19;;;3.43;100.00
67931;BME280;63902;52.000;5.954;2024-01-06T04:51:16;100210.50;;;3.46;100.00
67931;BME280;63902;52.000;5.954;2024-01-06T04:52:17;100186.47;;;3.25;100.00
67931;BME280;63902;52.000;5.954;2024-01-06T04:53:17;100205.41;;;3.40;100.00
67931;BME280;63902;52.000;5.954;2024-01-06T04:54:19;100161.38;;;3.13;100.00
67931;BME280;63902;52.000;5.954;2024-01-06T04:55:19;100216.72;;;3.40;100.00
67931;BME280;63902;52.000;5.954;2024-01-06T04:56:20;100215.91;;;3.38;100.00
67931;BME280;63902;52.000;5.954;2024-01-06T04:57:20;100217.69;;;3.36;100.00
67931;BME280;63902;52.000;5.954;2024-01-06T04:58:21;100225.53;;;3.36;100.00
67931;BME280;63902;52.000;5.954;2024-01-06T04:59:21;100222.06;;;3.37;100.00
67931;BME280;63902;52.000;5.954;2024-01-06T05:00:22;100218.53;;;3.38;100.00
67931;BME280;63902;52.000;5.954;2024-01-06T05:01:22;100226.44;;;3.36;100.00
67931;BME280;63902;52.000;5.954;2024-01-06T05:02:22;100219.50;;;3.34;100.00
67931;BME280;63902;52.000;5.954;2024-01-06T05:03:23;100233.53;;;3.31;100.00
67931;BME280;63902;52.000;5.954;2024-01-06T05:04:23;100233.53;;;3.31;100.00
67931;BME280;63902;52.000;5.954;2024-01-06T05:05:24;100235.25;;;3.32;100.00
67931;BME280;63902;52.000;5.954;2024-01-06T05:06:25;100236.97;;;3.33;100.00
67931;BME280;63902;52.000;5.954;2024-01-06T05:07:25;100233.47;;;3.34;100.00
67931;BME280;63902;52.000;5.954;2024-01-06T05:08:26;100236.91;;;3.36;100.00
67931;BME280;63902;52.000;5.954;2024-01-06T05:09:27;100240.47;;;3.32;100.00
67931;BME280;63902;52.000;5.954;2024-01-06T05:10:28;100245.78;;;3.31;100.00
67931;BME280;63902;52.000;5.954;2024-01-06T05:11:28;100244.03;;;3.30;100.00
67931;BME280;63902;52.000;5.954;2024-01-06T05:12:29;100233.72;;;3.22;100.00
67931;BME280;63902;52.000;5.954;2024-01-06T05:13:29;100248.41;;;3.29;100.00
67931;BME280;63902;52.000;5.954;2024-01-06T05:14:30;100225.03;;;3.20;100.00
67931;BME280;63902;52.000;5.954;2024-01-06T05:15:30;100244.06;;;3.28;100.00
67931;BME280;63902;52.000;5.954;2024-01-06T05:16:31;100242.31;;;3.27;100.00
67931;BME280;63902;52.000;5.954;2024-01-06T05:17:31;100244.09;;;3.27;100.00
67931;BME280;63902;52.000;5.954;2024-01-06T05:18:31;100232.03;;;3.18;100.00